Warren, New York
Current Conditions -  °F | °C
As of 2:53 PM on Monday 26 Jan 2015 (Local Time) from KRME Reporting Station
Light Snow Light Snow  
Wind Chill: -14°   Ceiling: 4800
Heat Index: -7°   Visibility: 9mi
Dew Point: -12°   Wind: 12mph
Humidity: 68%   Direction: 110°ESE
Pressure: 29.98"   Gusts: 17mph
Location:  42.8523°N, 74.9958°W
Report Text: KRME 261953Z 11010G15KT 9SM -SN FEW037 OVC048 M07/M12 A2998 RMK AO2 SLP160 P0000 T10721122
Loading
Personal Weather Stations






























Interactive Weather Map New forecast layout! Learn more

10-Day Weather Forecast

Advertisements
Track Severe Weather on mobile